KOAK

Metropolitan Oakland International Airport

Oakland, California, USA
METAR KOAK 211953Z 17006KT 10SM FEW035 SCT140 BKN200 12/07 A3037 RMK AO2 SLP283 T01170067
Observed Flight Rules
Jan-21 @ 19:53 UTC (26 minutes ago) Visual Flight Rules
Wind Visibility Clouds
170° at 6 knots 10 miles
  • Few at 3,500' AGL
  • Scattered at 14,000' AGL
  • Broken at 20,000' AGL
Temperatures Readings
Current 12°C / 54°F
Dewpoint 7°C / 45°F
Humidity 72%
Altimeter 30.37" Hg
Pressure 1028.3 hPa
Elevation 26
METAR KOAK 211953Z 17006KT 10SM FEW035 SCT140 BKN200 12/07 A3037 RMK AO2 SLP283 T01170067
Observed Flight Rules
Jan-21 @ 19:53 UTC
(26 minutes ago)
VFR
Wind Visibility
170° at 6 knots 10 miles
Clouds
  • Few at 3,500' AGL
  • Scattered at 14,000' AGL
  • Broken at 20,000' AGL
Temperature Dewpoint
12°C / 54°F 7°C / 45°F
Humidity Altimeter Pressure
72% 30.37" Hg 1028.3 hPa